sensor_id;sensor_type;location;lat;lon;timestamp;temperature;humidity
27004;DHT22;14546;47.590;19.022;2024-03-23T01:15:05;8.80;75.00
27004;DHT22;14546;47.590;19.022;2024-03-23T03:34:17;7.80;81.80
27004;DHT22;14546;47.590;19.022;2024-03-23T03:36:43;7.60;85.10
27004;DHT22;14546;47.590;19.022;2024-03-23T03:39:09;7.60;84.90
27004;DHT22;14546;47.590;19.022;2024-03-23T03:41:35;7.70;85.00
27004;DHT22;14546;47.590;19.022;2024-03-23T03:44:01;7.70;85.00
27004;DHT22;14546;47.590;19.022;2024-03-23T03:46:28;7.70;85.00
27004;DHT22;14546;47.590;19.022;2024-03-23T03:48:54;7.70;84.90
27004;DHT22;14546;47.590;19.022;2024-03-23T03:51:20;7.70;84.90
27004;DHT22;14546;47.590;19.022;2024-03-23T03:53:46;7.80;85.00
27004;DHT22;14546;47.590;19.022;2024-03-23T03:56:12;7.80;85.10
27004;DHT22;14546;47.590;19.022;2024-03-23T03:58:40;7.80;85.20
27004;DHT22;14546;47.590;19.022;2024-03-23T04:01:06;7.80;85.20
27004;DHT22;14546;47.590;19.022;2024-03-23T04:03:32;7.80;85.40
27004;DHT22;14546;47.590;19.022;2024-03-23T04:05:57;7.80;85.50
27004;DHT22;14546;47.590;19.022;2024-03-23T04:08:24;7.80;85.50
27004;DHT22;14546;47.590;19.022;2024-03-23T04:10:49;7.80;85.60
27004;DHT22;14546;47.590;19.022;2024-03-23T04:13:15;7.90;85.70
27004;DHT22;14546;47.590;19.022;2024-03-23T04:15:42;7.90;85.70
27004;DHT22;14546;47.590;19.022;2024-03-23T04:18:08;8.00;85.70
27004;DHT22;14546;47.590;19.022;2024-03-23T04:20:34;7.90;85.70
27004;DHT22;14546;47.590;19.022;2024-03-23T06:52:04;8.00;85.70
27004;DHT22;14546;47.590;19.022;2024-03-23T06:54:30;10.60;84.10
27004;DHT22;14546;47.590;19.022;2024-03-23T06:56:56;10.60;84.40
27004;DHT22;14546;47.590;19.022;2024-03-23T06:59:22;10.70;84.10
27004;DHT22;14546;47.590;19.022;2024-03-23T07:01:48;10.80;83.90
27004;DHT22;14546;47.590;19.022;2024-03-23T07:04:14;10.90;83.80
27004;DHT22;14546;47.590;19.022;2024-03-23T07:06:44;10.90;83.80
27004;DHT22;14546;47.590;19.022;2024-03-23T07:09:10;11.10;83.90
27004;DHT22;14546;47.590;19.022;2024-03-23T07:11:36;11.20;83.80
27004;DHT22;14546;47.590;19.022;2024-03-23T07:14:02;11.30;83.80
27004;DHT22;14546;47.590;19.022;2024-03-23T07:16:29;11.50;83.80
27004;DHT22;14546;47.590;19.022;2024-03-23T07:18:56;11.60;83.60
27004;DHT22;14546;47.590;19.022;2024-03-23T07:21:22;11.80;83.50
27004;DHT22;14546;47.590;19.022;2024-03-23T07:23:47;12.00;83.20
27004;DHT22;14546;47.590;19.022;2024-03-23T07:26:13;12.10;82.80
27004;DHT22;14546;47.590;19.022;2024-03-23T07:28:40;12.20;82.30
27004;DHT22;14546;47.590;19.022;2024-03-23T07:31:13;12.30;81.90
27004;DHT22;14546;47.590;19.022;2024-03-23T07:33:45;12.40;81.60
27004;DHT22;14546;47.590;19.022;2024-03-23T07:36:11;12.50;81.30
27004;DHT22;14546;47.590;19.022;2024-03-23T07:38:40;12.60;81.00
27004;DHT22;14546;47.590;19.022;2024-03-23T07:48:25;12.60;80.60
27004;DHT22;14546;47.590;19.022;2024-03-23T07:51:05;12.90;78.60
27004;DHT22;14546;47.590;19.022;2024-03-23T07:53:34;12.90;79.20
27004;DHT22;14546;47.590;19.022;2024-03-23T07:56:04;12.90;79.20
27004;DHT22;14546;47.590;19.022;2024-03-23T07:58:30;13.00;79.10
27004;DHT22;14546;47.590;19.022;2024-03-23T08:00:58;13.10;79.00
27004;DHT22;14546;47.590;19.022;2024-03-23T08:03:29;13.20;78.60
27004;DHT22;14546;47.590;19.022;2024-03-23T08:05:55;13.30;78.30
27004;DHT22;14546;47.590;19.022;2024-03-23T08:08:21;13.30;78.00
27004;DHT22;14546;47.590;19.022;2024-03-23T08:10:51;13.40;77.80
27004;DHT22;14546;47.590;19.022;2024-03-23T08:13:19;13.40;77.50
27004;DHT22;14546;47.590;19.022;2024-03-23T08:15:45;13.50;77.50
27004;DHT22;14546;47.590;19.022;2024-03-23T08:18:13;13.60;77.30
27004;DHT22;14546;47.590;19.022;2024-03-23T08:20:43;13.60;77.20
27004;DHT22;14546;47.590;19.022;2024-03-23T08:23:09;13.70;77.10
27004;DHT22;14546;47.590;19.022;2024-03-23T08:25:35;13.80;76.90
27004;DHT22;14546;47.590;19.022;2024-03-23T08:28:01;13.90;76.70
27004;DHT22;14546;47.590;19.022;2024-03-23T08:30:28;14.00;76.10
27004;DHT22;14546;47.590;19.022;2024-03-23T08:32:54;14.00;75.50
27004;DHT22;14546;47.590;19.022;2024-03-23T08:35:20;14.10;75.40
27004;DHT22;14546;47.590;19.022;2024-03-23T08:37:46;14.20;75.60
27004;DHT22;14546;47.590;19.022;2024-03-23T14:16:13;14.30;75.80
27004;DHT22;14546;47.590;19.022;2024-03-23T14:18:39;19.90;46.60
27004;DHT22;14546;47.590;19.022;2024-03-23T14:21:05;19.60;46.80
27004;DHT22;14546;47.590;19.022;2024-03-23T14:23:32;19.50;47.10
27004;DHT22;14546;47.590;19.022;2024-03-23T14:26:01;19.50;47.20
27004;DHT22;14546;47.590;19.022;2024-03-23T14:28:27;19.50;47.40
27004;DHT22;14546;47.590;19.022;2024-03-23T14:30:55;19.40;47.30
27004;DHT22;14546;47.590;19.022;2024-03-23T14:33:21;19.40;47.20
27004;DHT22;14546;47.590;19.022;2024-03-23T14:35:54;19.40;47.30
27004;DHT22;14546;47.590;19.022;2024-03-23T14:38:23;19.30;47.30
27004;DHT22;14546;47.590;19.022;2024-03-23T14:40:50;19.30;47.50
27004;DHT22;14546;47.590;19.022;2024-03-23T14:43:19;19.30;47.80
27004;DHT22;14546;47.590;19.022;2024-03-23T14:46:13;19.30;47.80
27004;DHT22;14546;47.590;19.022;2024-03-23T14:48:40;19.20;48.10
27004;DHT22;14546;47.590;19.022;2024-03-23T14:51:07;19.20;48.00
27004;DHT22;14546;47.590;19.022;2024-03-23T14:53:38;19.20;48.10
27004;DHT22;14546;47.590;19.022;2024-03-23T14:56:07;19.20;48.10
27004;DHT22;14546;47.590;19.022;2024-03-23T14:58:33;19.10;48.00
27004;DHT22;14546;47.590;19.022;2024-03-23T15:01:04;19.10;48.00
27004;DHT22;14546;47.590;19.022;2024-03-23T15:03:30;19.10;47.90
27004;DHT22;14546;47.590;19.022;2024-03-23T15:05:57;19.10;47.90
27004;DHT22;14546;47.590;19.022;2024-03-23T15:08:24;19.10;47.80
27004;DHT22;14546;47.590;19.022;2024-03-23T15:10:50;19.10;47.90
27004;DHT22;14546;47.590;19.022;2024-03-23T15:13:16;19.10;48.00
27004;DHT22;14546;47.590;19.022;2024-03-23T15:15:42;19.10;47.90
27004;DHT22;14546;47.590;19.022;2024-03-23T15:18:15;19.00;48.00
27004;DHT22;14546;47.590;19.022;2024-03-23T15:20:51;19.00;47.90
27004;DHT22;14546;47.590;19.022;2024-03-23T15:23:16;19.00;47.80
27004;DHT22;14546;47.590;19.022;2024-03-23T15:25:42;18.90;47.80
27004;DHT22;14546;47.590;19.022;2024-03-23T15:28:07;18.90;47.90
27004;DHT22;14546;47.590;19.022;2024-03-23T15:30:33;18.90;47.80
27004;DHT22;14546;47.590;19.022;2024-03-23T15:32:59;18.90;48.00
27004;DHT22;14546;47.590;19.022;2024-03-23T15:35:24;18.90;48.00
27004;DHT22;14546;47.590;19.022;2024-03-23T15:37:50;18.80;48.00
27004;DHT22;14546;47.590;19.022;2024-03-23T15:40:16;18.80;48.00
27004;DHT22;14546;47.590;19.022;2024-03-23T15:42:42;18.80;48.10
27004;DHT22;14546;47.590;19.022;2024-03-23T15:45:09;18.70;48.00
27004;DHT22;14546;47.590;19.022;2024-03-23T15:57:23;18.70;48.20
27004;DHT22;14546;47.590;19.022;2024-03-23T15:59:51;18.60;49.20
27004;DHT22;14546;47.590;19.022;2024-03-23T16:02:17;18.60;48.80
27004;DHT22;14546;47.590;19.022;2024-03-23T16:04:44;18.60;48.40
27004;DHT22;14546;47.590;19.022;2024-03-23T16:07:11;18.60;48.20
27004;DHT22;14546;47.590;19.022;2024-03-23T16:09:36;18.50;48.10
27004;DHT22;14546;47.590;19.022;2024-03-23T16:12:04;18.60;48.00
27004;DHT22;14546;47.590;19.022;2024-03-23T16:14:30;18.50;48.20
27004;DHT22;14546;47.590;19.022;2024-03-23T16:16:56;18.60;48.40
27004;DHT22;14546;47.590;19.022;2024-03-23T16:19:21;18.50;48.30
27004;DHT22;14546;47.590;19.022;2024-03-23T16:21:48;18.50;48.30
27004;DHT22;14546;47.590;19.022;2024-03-23T16:24:14;18.50;48.30
27004;DHT22;14546;47.590;19.022;2024-03-23T16:26:40;18.40;48.20
27004;DHT22;14546;47.590;19.022;2024-03-23T16:29:06;18.40;48.40
27004;DHT22;14546;47.590;19.022;2024-03-23T16:31:33;18.40;48.40
27004;DHT22;14546;47.590;19.022;2024-03-23T16:33:59;18.30;48.40
27004;DHT22;14546;47.590;19.022;2024-03-23T16:36:25;18.30;48.50
27004;DHT22;14546;47.590;19.022;2024-03-23T16:38:51;18.30;48.60
27004;DHT22;14546;47.590;19.022;2024-03-23T16:41:17;18.20;48.60
27004;DHT22;14546;47.590;19.022;2024-03-23T16:43:43;18.20;49.30
27004;DHT22;14546;47.590;19.022;2024-03-23T16:46:10;18.10;48.80
27004;DHT22;14546;47.590;19.022;2024-03-23T16:48:41;18.10;48.90
27004;DHT22;14546;47.590;19.022;2024-03-23T16:51:08;18.10;48.90
27004;DHT22;14546;47.590;19.022;2024-03-23T16:53:34;18.00;49.00
27004;DHT22;14546;47.590;19.022;2024-03-23T16:56:06;18.00;49.30
27004;DHT22;14546;47.590;19.022;2024-03-23T16:58:34;17.90;50.00
27004;DHT22;14546;47.590;19.022;2024-03-23T17:23:35;17.50;50.50
27004;DHT22;14546;47.590;19.022;2024-03-23T17:26:03;14.90;55.60
27004;DHT22;14546;47.590;19.022;2024-03-23T17:28:31;14.60;56.70
27004;DHT22;14546;47.590;19.022;2024-03-23T17:30:59;14.40;57.90
27004;DHT22;14546;47.590;19.022;2024-03-23T17:33:27;14.30;58.00
27004;DHT22;14546;47.590;19.022;2024-03-23T17:35:54;14.20;58.20
27004;DHT22;14546;47.590;19.022;2024-03-23T17:38:19;14.00;58.60
27004;DHT22;14546;47.590;19.022;2024-03-23T17:40:47;13.90;58.70
27004;DHT22;14546;47.590;19.022;2024-03-23T17:43:14;13.70;59.00
27004;DHT22;14546;47.590;19.022;2024-03-23T17:45:40;13.50;59.60
27004;DHT22;14546;47.590;19.022;2024-03-23T17:48:07;13.40;60.40
27004;DHT22;14546;47.590;19.022;2024-03-23T17:50:33;13.30;61.30
27004;DHT22;14546;47.590;19.022;2024-03-23T17:53:01;13.20;62.30
27004;DHT22;14546;47.590;19.022;2024-03-23T17:55:28;13.10;62.80
27004;DHT22;14546;47.590;19.022;2024-03-23T17:58:15;13.00;63.60
27004;DHT22;14546;47.590;19.022;2024-03-23T18:00:41;12.90;64.00
27004;DHT22;14546;47.590;19.022;2024-03-23T18:03:07;12.80;64.40
27004;DHT22;14546;47.590;19.022;2024-03-23T18:05:34;12.80;65.60
27004;DHT22;14546;47.590;19.022;2024-03-23T18:07:59;12.70;66.60
27004;DHT22;14546;47.590;19.022;2024-03-23T18:10:26;12.60;67.60
27004;DHT22;14546;47.590;19.022;2024-03-23T18:12:52;12.60;67.80
27004;DHT22;14546;47.590;19.022;2024-03-23T18:15:17;12.40;67.90
27004;DHT22;14546;47.590;19.022;2024-03-23T18:17:43;12.40;68.00
27004;DHT22;14546;47.590;19.022;2024-03-23T18:20:09;12.30;68.20
27004;DHT22;14546;47.590;19.022;2024-03-23T18:22:37;12.20;68.10
27004;DHT22;14546;47.590;19.022;2024-03-23T18:25:09;12.10;68.10
27004;DHT22;14546;47.590;19.022;2024-03-23T18:27:34;11.90;67.70
27004;DHT22;14546;47.590;19.022;2024-03-23T18:30:01;11.80;67.20
27004;DHT22;14546;47.590;19.022;2024-03-23T18:32:26;11.60;67.20
27004;DHT22;14546;47.590;19.022;2024-03-23T18:34:52;11.50;67.20
27004;DHT22;14546;47.590;19.022;2024-03-23T18:37:18;11.50;67.20
27004;DHT22;14546;47.590;19.022;2024-03-23T19:50:58;11.40;66.60
27004;DHT22;14546;47.590;19.022;2024-03-23T19:53:27;9.70;77.60
27004;DHT22;14546;47.590;19.022;2024-03-23T19:55:54;9.60;78.30
27004;DHT22;14546;47.590;19.022;2024-03-23T19:58:20;9.50;78.70
27004;DHT22;14546;47.590;19.022;2024-03-23T20:00:46;9.40;79.60
27004;DHT22;14546;47.590;19.022;2024-03-23T20:03:12;9.30;80.60
27004;DHT22;14546;47.590;19.022;2024-03-23T20:05:38;9.20;81.60
27004;DHT22;14546;47.590;19.022;2024-03-23T20:08:04;9.00;82.50
27004;DHT22;14546;47.590;19.022;2024-03-23T20:10:32;8.80;83.10
27004;DHT22;14546;47.590;19.022;2024-03-23T20:12:59;8.70;83.70
27004;DHT22;14546;47.590;19.022;2024-03-23T20:15:25;8.60;84.30
27004;DHT22;14546;47.590;19.022;2024-03-23T20:17:51;8.40;84.90
27004;DHT22;14546;47.590;19.022;2024-03-23T20:20:18;8.20;85.30
27004;DHT22;14546;47.590;19.022;2024-03-23T20:22:43;8.10;85.90
27004;DHT22;14546;47.590;19.022;2024-03-23T20:25:10;8.00;86.90
27004;DHT22;14546;47.590;19.022;2024-03-23T20:27:36;7.90;86.80
27004;DHT22;14546;47.590;19.022;2024-03-23T20:30:05;7.80;87.10
27004;DHT22;14546;47.590;19.022;2024-03-23T20:32:31;7.70;87.90
27004;DHT22;14546;47.590;19.022;2024-03-23T20:34:58;7.70;88.20
27004;DHT22;14546;47.590;19.022;2024-03-23T20:37:24;7.70;88.40
27004;DHT22;14546;47.590;19.022;2024-03-23T20:39:51;7.60;88.80
27004;DHT22;14546;47.590;19.022;2024-03-23T20:42:17;7.60;89.20
27004;DHT22;14546;47.590;19.022;2024-03-23T20:44:43;7.60;89.60
27004;DHT22;14546;47.590;19.022;2024-03-23T20:47:10;7.60;89.70
27004;DHT22;14546;47.590;19.022;2024-03-23T20:49:38;7.60;89.90
27004;DHT22;14546;47.590;19.022;2024-03-23T20:52:04;7.60;90.00
27004;DHT22;14546;47.590;19.022;2024-03-23T20:54:34;7.60;90.10
27004;DHT22;14546;47.590;19.022;2024-03-23T20:57:01;7.60;90.00
27004;DHT22;14546;47.590;19.022;2024-03-23T20:59:26;7.60;90.00
27004;DHT22;14546;47.590;19.022;2024-03-23T21:01:53;7.60;90.00
27004;DHT22;14546;47.590;19.022;2024-03-23T21:06:46;7.60;89.80
27004;DHT22;14546;47.590;19.022;2024-03-23T21:09:13;7.70;90.10
27004;DHT22;14546;47.590;19.022;2024-03-23T21:11:41;7.70;90.10
27004;DHT22;14546;47.590;19.022;2024-03-23T21:14:08;7.70;90.00
27004;DHT22;14546;47.590;19.022;2024-03-23T21:16:34;7.80;89.90
27004;DHT22;14546;47.590;19.022;2024-03-23T21:19:01;7.80;90.20
27004;DHT22;14546;47.590;19.022;2024-03-23T21:21:28;7.80;89.40
27004;DHT22;14546;47.590;19.022;2024-03-23T21:23:55;7.90;89.20
27004;DHT22;14546;47.590;19.022;2024-03-23T21:26:22;7.90;88.70
27004;DHT22;14546;47.590;19.022;2024-03-23T21:28:51;8.00;88.40
27004;DHT22;14546;47.590;19.022;2024-03-23T21:31:18;8.00;87.90
27004;DHT22;14546;47.590;19.022;2024-03-23T21:33:45;8.00;87.70
27004;DHT22;14546;47.590;19.022;2024-03-23T21:36:10;8.10;87.40
27004;DHT22;14546;47.590;19.022;2024-03-23T21:38:38;8.10;87.20
27004;DHT22;14546;47.590;19.022;2024-03-23T21:41:04;8.10;86.80
27004;DHT22;14546;47.590;19.022;2024-03-23T21:43:31;8.10;86.60
27004;DHT22;14546;47.590;19.022;2024-03-23T21:45:58;8.20;86.50
27004;DHT22;14546;47.590;19.022;2024-03-23T21:48:27;8.20;86.30
27004;DHT22;14546;47.590;19.022;2024-03-23T21:50:59;8.20;86.10
27004;DHT22;14546;47.590;19.022;2024-03-23T21:53:25;8.20;85.90
27004;DHT22;14546;47.590;19.022;2024-03-23T21:55:53;8.20;85.40
27004;DHT22;14546;47.590;19.022;2024-03-23T21:58:23;8.20;84.90
27004;DHT22;14546;47.590;19.022;2024-03-23T22:00:49;8.20;84.40
27004;DHT22;14546;47.590;19.022;2024-03-23T22:03:18;8.20;83.60
27004;DHT22;14546;47.590;19.022;2024-03-23T22:05:53;8.30;83.00
27004;DHT22;14546;47.590;19.022;2024-03-23T22:08:20;8.40;82.60
27004;DHT22;14546;47.590;19.022;2024-03-23T22:10:49;8.40;82.30
27004;DHT22;14546;47.590;19.022;2024-03-23T22:13:16;8.40;82.10
27004;DHT22;14546;47.590;19.022;2024-03-23T22:15:42;8.40;82.20
27004;DHT22;14546;47.590;19.022;2024-03-23T22:18:09;8.40;82.10
27004;DHT22;14546;47.590;19.022;2024-03-23T22:20:37;8.40;82.10
27004;DHT22;14546;47.590;19.022;2024-03-23T22:23:03;8.40;82.10
27004;DHT22;14546;47.590;19.022;2024-03-23T22:25:30;8.40;82.10
27004;DHT22;14546;47.590;19.022;2024-03-23T22:27:56;8.40;82.00
27004;DHT22;14546;47.590;19.022;2024-03-23T22:30:22;8.50;82.00
27004;DHT22;14546;47.590;19.022;2024-03-23T22:32:47;8.50;81.90
27004;DHT22;14546;47.590;19.022;2024-03-23T22:35:14;8.50;81.90
27004;DHT22;14546;47.590;19.022;2024-03-23T22:37:41;8.50;81.90
27004;DHT22;14546;47.590;19.022;2024-03-23T22:40:08;8.50;81.80
27004;DHT22;14546;47.590;19.022;2024-03-23T22:42:33;8.60;81.90
27004;DHT22;14546;47.590;19.022;2024-03-23T22:45:03;8.60;82.70
27004;DHT22;14546;47.590;19.022;2024-03-23T22:47:30;8.60;81.90
27004;DHT22;14546;47.590;19.022;2024-03-23T22:49:56;8.60;81.90
27004;DHT22;14546;47.590;19.022;2024-03-23T22:52:22;8.60;81.90
27004;DHT22;14546;47.590;19.022;2024-03-23T22:54:48;8.60;81.80
27004;DHT22;14546;47.590;19.022;2024-03-23T22:57:14;8.60;81.80
27004;DHT22;14546;47.590;19.022;2024-03-23T22:59:40;8.60;81.80
27004;DHT22;14546;47.590;19.022;2024-03-23T23:02:06;8.60;81.80
27004;DHT22;14546;47.590;19.022;2024-03-23T23:04:33;8.60;81.80
27004;DHT22;14546;47.590;19.022;2024-03-23T23:07:01;8.70;81.80
27004;DHT22;14546;47.590;19.022;2024-03-23T23:09:27;8.60;81.70
27004;DHT22;14546;47.590;19.022;2024-03-23T23:11:54;8.70;81.70
27004;DHT22;14546;47.590;19.022;2024-03-23T23:14:21;8.70;81.60
27004;DHT22;14546;47.590;19.022;2024-03-23T23:16:47;8.70;81.40
27004;DHT22;14546;47.590;19.022;2024-03-23T23:19:14;8.70;81.20
27004;DHT22;14546;47.590;19.022;2024-03-23T23:21:41;8.80;81.10
27004;DHT22;14546;47.590;19.022;2024-03-23T23:24:08;8.80;80.90
27004;DHT22;14546;47.590;19.022;2024-03-23T23:26:35;8.90;80.60
27004;DHT22;14546;47.590;19.022;2024-03-23T23:29:01;8.90;80.40
27004;DHT22;14546;47.590;19.022;2024-03-23T23:31:27;8.90;80.20
27004;DHT22;14546;47.590;19.022;2024-03-23T23:33:53;8.90;80.20
27004;DHT22;14546;47.590;19.022;2024-03-23T23:36:18;8.90;80.30
27004;DHT22;14546;47.590;19.022;2024-03-23T23:38:49;8.90;80.30
27004;DHT22;14546;47.590;19.022;2024-03-23T23:41:15;8.90;80.30
27004;DHT22;14546;47.590;19.022;2024-03-23T23:43:42;8.90;80.40
27004;DHT22;14546;47.590;19.022;2024-03-23T23:46:19;8.90;80.50
27004;DHT22;14546;47.590;19.022;2024-03-23T23:48:45;8.90;80.50
27004;DHT22;14546;47.590;19.022;2024-03-23T23:51:11;8.80;80.40
27004;DHT22;14546;47.590;19.022;2024-03-23T23:53:37;8.80;80.40
27004;DHT22;14546;47.590;19.022;2024-03-23T23:56:04;8.80;80.40
27004;DHT22;14546;47.590;19.022;2024-03-23T23:58:30;8.80;80.40
